createdAt,value
2022-12-14T00:01:20.029Z,98093.56
2022-12-14T00:03:47.625Z,98081.47
2022-12-14T00:06:18.657Z,98078.75
2022-12-14T00:08:46.391Z,98087.91
2022-12-14T00:11:14.206Z,98092.66
2022-12-14T00:13:41.522Z,98070.34
2022-12-14T00:16:10.880Z,98072.81
2022-12-14T00:18:37.501Z,98080.63
2022-12-14T00:21:06.259Z,98073.91
2022-12-14T00:23:38.714Z,98077.06
2022-12-14T00:26:17.869Z,98079.47
2022-12-14T00:28:45.743Z,98079.22
2022-12-14T00:31:12.886Z,98067.63
2022-12-14T00:33:39.692Z,98071.00
2022-12-14T00:36:08.255Z,98066.03
2022-12-14T00:38:34.861Z,98069.97
2022-12-14T00:41:01.332Z,98066.06
2022-12-14T00:43:27.770Z,98056.25
2022-12-14T00:45:54.543Z,98059.06
2022-12-14T00:48:22.484Z,98059.78
2022-12-14T00:50:50.269Z,98068.31
2022-12-14T00:53:17.706Z,98069.88
2022-12-14T00:55:49.043Z,98070.03
2022-12-14T00:58:20.691Z,98068.44
2022-12-14T01:00:48.632Z,98061.47
2022-12-14T01:03:15.597Z,98050.41
2022-12-14T01:05:42.561Z,98052.94
2022-12-14T01:08:15.683Z,98056.47
2022-12-14T01:10:42.046Z,98046.66
2022-12-14T01:13:10.536Z,98043.97
2022-12-14T01:15:37.180Z,98038.22
2022-12-14T01:18:03.737Z,98035.16
2022-12-14T01:20:30.631Z,98028.81
2022-12-14T01:22:57.095Z,98030.34
2022-12-14T01:25:23.815Z,98021.09
2022-12-14T01:27:50.365Z,98023.66
2022-12-14T01:30:19.137Z,98012.47
2022-12-14T01:32:46.118Z,97996.94
2022-12-14T01:35:12.525Z,97985.44
2022-12-14T01:37:38.913Z,97979.50
2022-12-14T01:40:05.793Z,97984.78
2022-12-14T01:42:35.006Z,97984.66
2022-12-14T01:45:01.472Z,97973.97
2022-12-14T01:47:44.413Z,97977.56
2022-12-14T01:50:22.467Z,97970.63
2022-12-14T01:52:51.315Z,97958.53
2022-12-14T01:55:39.831Z,97958.41
2022-12-14T01:58:10.185Z,97957.88
2022-12-14T02:00:36.817Z,97946.25
2022-12-14T02:03:14.777Z,97944.78
2022-12-14T02:05:46.350Z,97946.28
2022-12-14T02:08:13.610Z,97946.06
2022-12-14T02:10:40.893Z,97949.94
2022-12-14T02:13:29.410Z,97947.97
2022-12-14T02:15:56.161Z,97945.50
2022-12-14T02:18:25.314Z,97944.03
2022-12-14T02:21:29.414Z,97941.84
2022-12-14T02:24:22.163Z,97939.44
2022-12-14T02:27:10.401Z,97923.94
2022-12-14T02:29:45.810Z,97923.69
2022-12-14T02:32:36.374Z,97923.66
2022-12-14T02:35:18.388Z,97918.88
2022-12-14T02:38:09.273Z,97919.06
2022-12-14T02:41:00.470Z,97917.00
2022-12-14T02:43:44.374Z,97921.84
2022-12-14T02:47:02.884Z,97908.66
2022-12-14T02:49:41.522Z,97907.91
2022-12-14T02:52:29.200Z,97911.88
2022-12-14T02:55:22.332Z,97905.41
2022-12-14T02:57:55.511Z,97905.69
2022-12-14T03:00:22.305Z,97905.41
2022-12-14T03:02:49.714Z,97901.84
2022-12-14T03:05:16.350Z,97901.09
2022-12-14T03:07:56.894Z,97907.34
2022-12-14T03:10:35.147Z,97893.69
2022-12-14T03:13:23.588Z,97896.28
2022-12-14T03:16:01.802Z,97893.97
2022-12-14T03:18:36.541Z,97897.91
2022-12-14T03:21:07.742Z,97889.59
2022-12-14T03:23:37.742Z,97884.75
2022-12-14T03:26:26.372Z,97882.13
2022-12-14T03:29:29.801Z,97869.22
2022-12-14T03:31:59.941Z,97869.03
2022-12-14T03:34:37.687Z,97872.41
2022-12-14T03:37:16.005Z,97861.84
2022-12-14T03:39:44.666Z,97864.16
2022-12-14T03:42:35.914Z,97855.06
2022-12-14T03:45:18.250Z,97853.75
2022-12-14T03:47:47.590Z,97860.41
2022-12-14T03:50:16.446Z,97857.22
2022-12-14T03:52:46.722Z,97852.84
2022-12-14T03:55:41.332Z,97852.84
2022-12-14T03:58:38.777Z,97858.25
2022-12-14T04:01:19.255Z,97865.38
2022-12-14T04:03:49.267Z,97867.63
2022-12-14T04:06:47.719Z,97862.75
2022-12-14T04:09:43.094Z,97874.47
2022-12-14T04:12:51.438Z,97870.16
2022-12-14T04:15:52.935Z,97870.44
2022-12-14T04:18:43.506Z,97873.72
2022-12-14T04:21:19.782Z,97868.50
2022-12-14T04:24:11.835Z,97863.25
2022-12-14T04:26:43.758Z,97864.34
2022-12-14T04:29:33.995Z,97866.97
2022-12-14T04:32:16.922Z,97865.97
2022-12-14T04:34:49.250Z,97861.94
2022-12-14T04:37:19.514Z,97859.97
2022-12-14T04:39:57.859Z,97862.69
2022-12-14T04:42:30.539Z,97863.03
2022-12-14T04:45:03.571Z,97854.69
2022-12-14T04:47:35.178Z,97862.38
2022-12-14T04:50:18.783Z,97844.75
2022-12-14T04:53:03.194Z,97843.28
2022-12-14T04:55:46.392Z,97834.56
2022-12-14T04:58:24.143Z,97827.63
2022-12-14T05:01:22.532Z,97827.63
2022-12-14T05:04:12.437Z,97827.06
2022-12-14T05:06:42.296Z,97821.00
2022-12-14T05:09:18.668Z,97825.41
2022-12-14T05:11:56.382Z,97824.72
2022-12-14T05:14:31.688Z,97817.03
2022-12-14T05:16:59.656Z,97807.59
2022-12-14T05:19:27.662Z,97794.66
2022-12-14T05:21:54.610Z,97793.34
2022-12-14T05:24:20.938Z,97791.72
2022-12-14T05:26:47.530Z,97787.72
2022-12-14T05:29:14.950Z,97783.03
2022-12-14T05:31:41.384Z,97780.97
2022-12-14T05:34:07.755Z,97773.00
2022-12-14T05:36:34.135Z,97773.63
2022-12-14T05:39:00.831Z,97770.78
2022-12-14T05:41:27.213Z,97764.09
2022-12-14T05:43:53.558Z,97766.50
2022-12-14T05:46:19.999Z,97754.81
2022-12-14T05:48:49.423Z,97756.78
2022-12-14T05:51:16.651Z,97759.94
2022-12-14T05:53:43.437Z,97741.31
2022-12-14T05:56:10.977Z,97735.97
2022-12-14T05:58:37.871Z,97736.25
2022-12-14T06:01:07.528Z,97734.28
2022-12-14T06:03:34.306Z,97739.72
2022-12-14T06:06:05.304Z,97728.66
2022-12-14T06:08:37.677Z,97728.84
2022-12-14T07:35:25.478Z,97771.31
2022-12-14T07:37:51.892Z,97776.34
2022-12-14T07:40:19.961Z,97781.72
2022-12-14T07:42:49.627Z,97783.28
2022-12-14T07:45:16.780Z,97784.75
2022-12-14T07:47:43.146Z,97788.78
2022-12-14T07:50:10.414Z,97787.44
2022-12-14T07:52:37.716Z,97783.34
2022-12-14T07:55:04.473Z,97781.75
2022-12-14T07:57:31.672Z,97790.69
2022-12-14T07:59:58.023Z,97779.13
2022-12-14T08:02:24.523Z,97780.38
2022-12-14T08:04:51.041Z,97778.09
2022-12-14T08:42:39.377Z,97797.56
2022-12-14T08:45:06.197Z,97790.59
2022-12-14T08:47:32.556Z,97792.50
2022-12-14T08:49:59.418Z,97800.72
2022-12-14T08:52:25.942Z,97806.16
2022-12-14T08:54:52.310Z,97807.66
2022-12-14T09:23:16.763Z,97823.03
2022-12-14T09:25:43.089Z,97817.34
2022-12-14T09:28:09.483Z,97814.97
2022-12-14T09:30:35.938Z,97819.25
2022-12-14T09:33:02.349Z,97825.66
2022-12-14T09:35:28.945Z,97821.31
2022-12-14T09:37:55.380Z,97824.75
2022-12-14T09:40:26.975Z,97817.50
2022-12-14T09:43:01.375Z,97824.84
2022-12-14T09:45:42.241Z,97830.19
2022-12-14T09:48:20.234Z,97834.81
2022-12-14T09:50:49.627Z,97827.41
2022-12-14T09:53:18.270Z,97829.84
2022-12-14T09:55:48.202Z,97824.38
2022-12-14T09:58:28.443Z,97817.66
2022-12-14T10:01:17.054Z,97822.50
2022-12-14T10:04:12.580Z,97827.16
2022-12-14T10:06:49.086Z,97829.06
2022-12-14T10:09:37.501Z,97826.03
2022-12-14T10:12:31.026Z,97819.53
2022-12-14T10:15:23.360Z,97820.56
2022-12-14T10:18:34.009Z,97818.75
2022-12-14T10:21:14.192Z,97814.56
2022-12-14T10:24:20.361Z,97814.56
2022-12-14T10:26:50.136Z,97815.22
2022-12-14T10:29:37.245Z,97811.22
2022-12-14T10:32:12.524Z,97816.06
2022-12-14T10:34:41.230Z,97827.53
2022-12-14T10:37:33.457Z,97821.44
2022-12-14T10:40:27.480Z,97814.41
2022-12-14T10:43:26.944Z,97822.91
2022-12-14T10:45:59.287Z,97827.66
2022-12-14T10:48:37.435Z,97818.59
2022-12-14T10:51:10.812Z,97811.22
2022-12-14T10:53:47.649Z,97813.53
2022-12-14T10:56:21.103Z,97816.59
2022-12-14T10:59:23.924Z,97819.00
2022-12-14T11:01:57.141Z,97813.13
2022-12-14T11:04:35.172Z,97809.41
2022-12-14T11:07:08.040Z,97807.66
2022-12-14T11:09:36.131Z,97819.13
2022-12-14T11:12:05.127Z,97818.19
2022-12-14T11:14:34.409Z,97810.81
2022-12-14T11:17:00.912Z,97811.03
2022-12-14T11:19:28.806Z,97805.25
2022-12-14T11:22:18.713Z,97799.84
2022-12-14T11:24:48.787Z,97794.19
2022-12-14T11:27:19.531Z,97793.34
2022-12-14T11:29:49.201Z,97799.03
2022-12-14T11:32:19.496Z,97798.19
2022-12-14T11:34:54.726Z,97797.16
2022-12-14T11:37:24.494Z,97792.09
2022-12-14T11:39:53.579Z,97784.31
2022-12-14T11:42:21.520Z,97794.94
2022-12-14T11:44:49.651Z,97792.06
2022-12-14T11:47:21.888Z,97780.94
2022-12-14T11:49:54.417Z,97787.34
2022-12-14T11:52:41.451Z,97783.88
2022-12-14T11:55:12.560Z,97776.94
2022-12-14T11:57:59.686Z,97785.34
2022-12-14T12:00:30.645Z,97787.03
2022-12-14T12:02:57.028Z,97778.34
2022-12-14T12:05:24.029Z,97771.50
2022-12-14T12:07:50.301Z,97781.72
2022-12-14T12:10:22.297Z,97770.50
2022-12-14T12:13:00.471Z,97775.31
2022-12-14T12:15:36.108Z,97779.22
2022-12-14T12:18:14.267Z,97778.59
2022-12-14T12:21:25.310Z,97783.75
2022-12-14T12:23:57.175Z,97770.78
2022-12-14T12:26:30.275Z,97769.84
2022-12-14T12:29:06.116Z,97762.56
2022-12-14T12:31:45.302Z,97764.13
2022-12-14T12:34:18.839Z,97761.06
2022-12-14T12:37:17.520Z,97758.06
2022-12-14T12:39:36.946Z,97756.00
2022-12-14T12:42:27.058Z,97759.56
2022-12-14T12:45:05.624Z,97758.38
2022-12-14T12:47:47.488Z,97769.38
2022-12-14T12:50:17.853Z,97770.84
2022-12-14T12:52:57.777Z,97766.88
2022-12-14T12:55:28.894Z,97771.41
2022-12-14T12:57:58.201Z,97771.03
2022-12-14T13:00:28.181Z,97774.13
2022-12-14T13:03:00.471Z,97779.66
2022-12-14T13:05:46.308Z,97778.19
2022-12-14T13:08:26.911Z,97773.97
2022-12-14T13:14:16.828Z,97769.84
2022-12-14T13:16:44.390Z,97767.63
2022-12-14T13:19:50.331Z,97777.31
2022-12-14T13:22:24.198Z,97785.94
2022-12-14T13:24:58.837Z,97778.16
2022-12-14T13:27:43.329Z,97778.56
2022-12-14T13:30:22.229Z,97775.00
2022-12-14T13:32:51.530Z,97775.81
2022-12-14T13:35:41.018Z,97782.69
2022-12-14T13:38:20.044Z,97781.28
2022-12-14T13:41:08.570Z,97782.53
2022-12-14T13:43:49.851Z,97779.81
2022-12-14T13:46:22.531Z,97783.16
2022-12-14T13:48:52.806Z,97786.66
2022-12-14T13:51:28.305Z,97782.03
2022-12-14T13:53:59.051Z,97785.06
2022-12-14T13:56:44.285Z,97788.06
2022-12-14T13:59:49.178Z,97804.88
2022-12-14T14:02:28.009Z,97814.25
2022-12-14T14:05:26.198Z,97828.56
2022-12-14T14:08:01.816Z,97830.38
2022-12-14T14:10:37.036Z,97837.31
2022-12-14T14:13:28.317Z,97836.28
2022-12-14T14:16:27.531Z,97833.00
2022-12-14T14:19:14.118Z,97836.47
2022-12-14T14:22:14.011Z,97840.88
2022-12-14T14:24:28.915Z,97840.88
2022-12-14T14:27:25.880Z,97842.31
2022-12-14T14:29:53.019Z,97844.94
2022-12-14T14:32:41.059Z,97846.63
2022-12-14T14:35:36.873Z,97849.28
2022-12-14T14:38:25.803Z,97853.81
2022-12-14T14:41:16.152Z,97861.16
2022-12-14T14:43:50.847Z,97863.34
2022-12-14T14:46:22.868Z,97860.63
2022-12-14T14:48:54.496Z,97863.34
2022-12-14T14:51:28.299Z,97854.34
2022-12-14T14:54:46.267Z,97855.38
2022-12-14T14:57:24.210Z,97856.44
2022-12-14T15:00:00.286Z,97868.31
2022-12-14T15:02:32.456Z,97876.41
2022-12-14T15:05:17.477Z,97869.88
2022-12-14T15:07:47.087Z,97869.03
2022-12-14T15:10:23.070Z,97880.59
2022-12-14T15:12:52.942Z,97877.03
2022-12-14T15:15:44.196Z,97891.09
2022-12-14T15:18:21.229Z,97892.16
2022-12-14T15:20:52.548Z,97892.16
2022-12-14T15:23:19.523Z,97895.63
2022-12-14T15:25:46.349Z,97899.22
2022-12-14T15:28:21.542Z,97896.03
2022-12-14T15:30:48.274Z,97898.75
2022-12-14T15:33:24.893Z,97903.25
2022-12-14T15:35:51.823Z,97905.03
2022-12-14T15:38:33.382Z,97907.22
2022-12-14T15:41:03.703Z,97913.34
2022-12-14T15:43:30.711Z,97918.59
2022-12-14T15:46:04.075Z,97919.81
2022-12-14T15:48:34.202Z,97929.31
2022-12-14T15:51:03.165Z,97932.03
2022-12-14T15:53:39.303Z,97934.38
2022-12-14T15:56:33.691Z,97941.69
2022-12-14T15:59:02.797Z,97934.84
2022-12-14T16:01:40.472Z,97934.28
2022-12-14T16:04:11.920Z,97939.44
2022-12-14T16:06:42.702Z,97941.03
2022-12-14T16:09:28.723Z,97947.06
2022-12-14T16:11:57.791Z,97943.56
2022-12-14T16:14:45.907Z,97948.63
2022-12-14T16:17:25.006Z,97967.75
2022-12-14T16:19:59.849Z,97969.09
2022-12-14T16:22:32.532Z,97968.16
2022-12-14T16:25:07.821Z,97970.25
2022-12-14T16:27:38.369Z,97970.63
2022-12-14T16:30:32.489Z,97964.63
2022-12-14T16:33:15.629Z,97968.66
2022-12-14T16:35:42.154Z,97966.63
2022-12-14T16:38:13.657Z,97973.63
2022-12-14T16:41:12.282Z,97973.81
2022-12-14T16:43:41.710Z,97970.56
2022-12-14T16:46:12.449Z,97968.19
2022-12-14T16:48:42.141Z,97981.97
2022-12-14T16:51:44.872Z,97983.31
2022-12-14T16:54:33.954Z,97984.13
2022-12-14T16:57:05.467Z,97987.31
2022-12-14T16:59:44.069Z,97990.31
2022-12-14T17:02:46.335Z,97993.69
2022-12-14T17:05:17.514Z,97991.81
2022-12-14T17:07:44.152Z,97998.50
2022-12-14T17:10:16.804Z,97998.59
2022-12-14T17:12:47.331Z,98002.78
2022-12-14T17:15:15.523Z,98007.03
2022-12-14T17:17:42.812Z,98000.44
2022-12-14T17:20:23.625Z,98002.97
2022-12-14T17:22:50.703Z,98008.91
2022-12-14T17:25:17.537Z,98013.59
2022-12-14T17:27:43.929Z,98018.56
2022-12-14T17:30:20.144Z,98023.72
2022-12-14T17:32:47.505Z,98019.28
2022-12-14T17:35:20.186Z,98024.66
2022-12-14T17:37:47.198Z,98022.97
2022-12-14T17:40:16.289Z,98019.41
2022-12-14T17:42:47.096Z,98024.28
2022-12-14T17:45:25.838Z,98017.34
2022-12-14T17:47:52.223Z,98016.97
2022-12-14T17:50:19.106Z,98016.22
2022-12-14T17:52:46.066Z,98021.47
2022-12-14T17:55:21.995Z,98017.16
2022-12-14T17:57:49.013Z,98019.03
2022-12-14T18:00:36.632Z,98026.81
2022-12-14T18:03:04.154Z,98021.28
2022-12-14T18:05:31.389Z,98030.38
2022-12-14T18:07:58.144Z,98028.50
2022-12-14T18:10:25.447Z,98036.28
2022-12-14T18:12:51.873Z,98035.53
2022-12-14T18:15:28.155Z,98045.22
2022-12-14T18:17:55.278Z,98039.22
2022-12-14T18:20:23.503Z,98038.53
2022-12-14T18:22:50.558Z,98039.50
2022-12-14T18:25:26.484Z,98038.44
2022-12-14T18:27:52.933Z,98043.22
2022-12-14T18:30:20.170Z,98044.09
2022-12-14T18:32:46.598Z,98052.06
2022-12-14T18:35:25.416Z,98046.16
2022-12-14T18:37:52.820Z,98053.16
2022-12-14T18:40:22.538Z,98054.31
2022-12-14T18:42:49.165Z,98055.22
2022-12-14T18:45:21.883Z,98054.31
2022-12-14T18:47:48.586Z,98053.56
2022-12-14T18:50:16.444Z,98062.28
2022-12-14T18:52:43.668Z,98052.81
2022-12-14T18:55:20.503Z,98059.81
2022-12-14T18:57:49.254Z,98070.41
2022-12-14T19:00:18.902Z,98081.97
2022-12-14T19:02:46.896Z,98083.84
2022-12-14T19:05:24.286Z,98081.31
2022-12-14T19:07:52.357Z,98084.09
2022-12-14T19:10:21.848Z,98083.28
2022-12-14T19:12:49.417Z,98083.94
2022-12-14T19:15:18.891Z,98089.19
2022-12-14T19:17:45.500Z,98088.44
2022-12-14T19:20:13.495Z,98094.78
2022-12-14T19:22:40.330Z,98090.00
2022-12-14T19:25:07.785Z,98096.88
2022-12-14T19:28:15.088Z,98090.19
2022-12-14T19:30:23.651Z,98104.38
2022-12-14T19:32:54.654Z,98108.09
2022-12-14T19:35:23.010Z,98109.13
2022-12-14T19:37:50.106Z,98107.72
2022-12-14T19:40:17.021Z,98105.25
2022-12-14T19:42:45.207Z,98098.31
2022-12-14T19:45:11.831Z,98096.06
2022-12-14T19:47:38.606Z,98094.03
2022-12-14T19:50:06.712Z,98101.03
2022-12-14T19:52:34.033Z,98108.22
2022-12-14T19:55:01.444Z,98109.09
2022-12-14T19:57:28.177Z,98117.91
2022-12-14T19:59:54.580Z,98112.56
2022-12-14T20:02:21.249Z,98118.03
2022-12-14T20:04:47.817Z,98113.59
2022-12-14T20:07:14.374Z,98112.91
2022-12-14T20:09:40.850Z,98116.94
2022-12-14T20:12:10.822Z,98122.44
2022-12-14T20:14:42.561Z,98123.66
2022-12-14T20:17:10.836Z,98124.97
2022-12-14T20:19:38.365Z,98135.25
2022-12-14T20:22:05.593Z,98129.22
2022-12-14T20:24:32.003Z,98133.84
2022-12-14T20:26:58.470Z,98148.34
2022-12-14T20:29:25.049Z,98154.88
2022-12-14T20:31:51.742Z,98149.81
2022-12-14T20:34:18.218Z,98156.78
2022-12-14T20:36:44.576Z,98162.16
2022-12-14T20:39:10.956Z,98161.56
2022-12-14T20:41:37.396Z,98165.72
2022-12-14T20:44:07.581Z,98171.66
2022-12-14T20:46:36.406Z,98174.34
2022-12-14T20:49:10.636Z,98180.78
2022-12-14T20:51:38.561Z,98178.53
2022-12-14T20:54:07.339Z,98172.66
2022-12-14T20:56:35.137Z,98174.22
2022-12-14T20:59:01.918Z,98181.63
2022-12-14T21:01:28.502Z,98177.81
2022-12-14T21:03:57.759Z,98177.16
2022-12-14T21:06:24.160Z,98170.66
2022-12-14T21:09:09.330Z,98176.59
2022-12-14T21:11:55.368Z,98176.66
2022-12-14T21:14:22.274Z,98181.75
2022-12-14T21:16:48.915Z,98183.66
2022-12-14T21:19:16.673Z,98184.78
2022-12-14T21:21:48.117Z,98184.66
2022-12-14T21:24:37.434Z,98178.72
2022-12-14T21:27:05.457Z,98192.31
2022-12-14T21:29:32.065Z,98185.00
2022-12-14T21:31:58.442Z,98181.84
2022-12-14T21:34:24.898Z,98182.47
2022-12-14T21:36:51.717Z,98186.03
2022-12-14T21:39:19.426Z,98182.06
2022-12-14T21:42:04.945Z,98195.84
2022-12-14T21:44:34.730Z,98193.00
2022-12-14T21:47:01.974Z,98199.06
2022-12-14T21:49:28.363Z,98196.00
2022-12-14T21:51:56.241Z,98200.75
2022-12-14T21:54:23.317Z,98189.03
2022-12-14T21:57:08.808Z,98193.94
2022-12-14T21:59:38.938Z,98197.19
2022-12-14T22:02:14.756Z,98197.06
2022-12-14T22:04:46.040Z,98213.56
2022-12-14T22:07:17.429Z,98210.06
2022-12-14T22:09:44.151Z,98210.75
2022-12-14T22:12:17.964Z,98206.66
2022-12-14T22:14:44.372Z,98206.38
2022-12-14T22:17:12.599Z,98199.59
2022-12-14T22:19:38.953Z,98203.03
2022-12-14T22:22:05.462Z,98211.59
2022-12-14T22:24:31.948Z,98204.81
2022-12-14T22:26:59.286Z,98211.91
2022-12-14T22:29:25.938Z,98215.44
2022-12-14T22:31:52.566Z,98223.19
2022-12-14T22:34:22.571Z,98220.22
2022-12-14T22:36:50.936Z,98213.59
2022-12-14T22:39:17.990Z,98210.22
2022-12-14T22:41:44.780Z,98207.59
2022-12-14T22:44:12.723Z,98207.41
2022-12-14T22:46:40.622Z,98205.53
2022-12-14T22:49:08.520Z,98211.53
2022-12-14T22:51:34.903Z,98219.38
2022-12-14T22:54:01.268Z,98208.94
2022-12-14T22:56:44.950Z,98213.38
2022-12-14T22:59:20.335Z,98218.88
2022-12-14T23:01:50.184Z,98216.97
2022-12-14T23:04:17.767Z,98209.22
2022-12-14T23:06:45.115Z,98223.34
2022-12-14T23:09:30.227Z,98221.38
2022-12-14T23:12:19.622Z,98216.44
2022-12-14T23:15:06.138Z,98221.66
2022-12-14T23:17:50.986Z,98230.56
2022-12-14T23:20:35.684Z,98235.91
2022-12-14T23:23:24.357Z,98237.88
2022-12-14T23:26:09.359Z,98233.94
2022-12-14T23:28:54.120Z,98239.47
2022-12-14T23:31:39.095Z,98250.69
2022-12-14T23:34:23.845Z,98246.66
2022-12-14T23:37:08.687Z,98248.16
2022-12-14T23:39:54.562Z,98243.63
2022-12-14T23:42:39.370Z,98252.16
2022-12-14T23:45:24.993Z,98251.03
2022-12-14T23:48:09.654Z,98251.19
2022-12-14T23:50:54.447Z,98244.13
2022-12-14T23:53:39.269Z,98255.44
2022-12-14T23:56:24.497Z,98246.53
2022-12-14T23:59:13.781Z,98247.66
